sensor_id;sensor_type;location;lat;lon;timestamp;temperature;humidity
42479;DHT22;28110;47.080;9.476;2023-05-10T00:01:33;14.40;99.90
42479;DHT22;28110;47.080;9.476;2023-05-10T00:03:59;14.40;99.90
42479;DHT22;28110;47.080;9.476;2023-05-10T00:06:24;14.40;99.90
42479;DHT22;28110;47.080;9.476;2023-05-10T00:08:50;14.40;99.90
42479;DHT22;28110;47.080;9.476;2023-05-10T00:11:16;14.40;99.90
42479;DHT22;28110;47.080;9.476;2023-05-10T00:13:41;14.40;99.90
42479;DHT22;28110;47.080;9.476;2023-05-10T00:16:07;14.40;99.90
42479;DHT22;28110;47.080;9.476;2023-05-10T00:18:32;14.30;99.90
42479;DHT22;28110;47.080;9.476;2023-05-10T00:20:58;14.30;99.90
42479;DHT22;28110;47.080;9.476;2023-05-10T00:23:23;14.30;99.90
42479;DHT22;28110;47.080;9.476;2023-05-10T00:25:49;14.30;99.90
42479;DHT22;28110;47.080;9.476;2023-05-10T00:28:14;14.30;99.90
42479;DHT22;28110;47.080;9.476;2023-05-10T00:30:40;14.20;99.90
42479;DHT22;28110;47.080;9.476;2023-05-10T00:33:05;14.20;99.90
42479;DHT22;28110;47.080;9.476;2023-05-10T00:35:31;14.20;99.90
42479;DHT22;28110;47.080;9.476;2023-05-10T00:37:57;14.20;99.90
42479;DHT22;28110;47.080;9.476;2023-05-10T00:40:23;14.10;99.90
42479;DHT22;28110;47.080;9.476;2023-05-10T00:42:48;14.10;99.90
42479;DHT22;28110;47.080;9.476;2023-05-10T00:45:14;14.10;99.90
42479;DHT22;28110;47.080;9.476;2023-05-10T00:47:39;14.10;99.90
42479;DHT22;28110;47.080;9.476;2023-05-10T00:50:06;14.10;99.90
42479;DHT22;28110;47.080;9.476;2023-05-10T00:52:32;14.10;99.90
42479;DHT22;28110;47.080;9.476;2023-05-10T00:54:57;14.10;99.90
42479;DHT22;28110;47.080;9.476;2023-05-10T00:57:24;14.10;99.90
42479;DHT22;28110;47.080;9.476;2023-05-10T00:59:50;14.20;99.90
42479;DHT22;28110;47.080;9.476;2023-05-10T01:02:16;14.10;99.90
42479;DHT22;28110;47.080;9.476;2023-05-10T01:04:43;14.10;99.90
42479;DHT22;28110;47.080;9.476;2023-05-10T01:07:08;14.10;99.90
42479;DHT22;28110;47.080;9.476;2023-05-10T01:09:34;14.10;99.90
42479;DHT22;28110;47.080;9.476;2023-05-10T01:12:00;14.10;99.90
42479;DHT22;28110;47.080;9.476;2023-05-10T01:14:27;14.10;99.90
42479;DHT22;28110;47.080;9.476;2023-05-10T01:16:53;14.00;99.90
42479;DHT22;28110;47.080;9.476;2023-05-10T01:19:22;14.00;99.90
42479;DHT22;28110;47.080;9.476;2023-05-10T01:22:15;14.00;99.90
42479;DHT22;28110;47.080;9.476;2023-05-10T01:35:34;13.90;99.90
42479;DHT22;28110;47.080;9.476;2023-05-10T01:38:15;13.90;99.90
42479;DHT22;28110;47.080;9.476;2023-05-10T01:44:03;13.80;99.90
42479;DHT22;28110;47.080;9.476;2023-05-10T01:46:36;13.80;99.90
42479;DHT22;28110;47.080;9.476;2023-05-10T01:49:06;13.70;99.90
42479;DHT22;28110;47.080;9.476;2023-05-10T01:51:44;13.70;99.90
42479;DHT22;28110;47.080;9.476;2023-05-10T01:54:13;13.70;99.90
42479;DHT22;28110;47.080;9.476;2023-05-10T01:56:39;13.70;99.90
42479;DHT22;28110;47.080;9.476;2023-05-10T01:59:11;13.70;99.90
42479;DHT22;28110;47.080;9.476;2023-05-10T02:01:38;13.70;99.90
42479;DHT22;28110;47.080;9.476;2023-05-10T02:04:05;13.70;99.90
42479;DHT22;28110;47.080;9.476;2023-05-10T02:06:32;13.70;99.90
42479;DHT22;28110;47.080;9.476;2023-05-10T02:09:00;13.60;99.90
42479;DHT22;28110;47.080;9.476;2023-05-10T02:11:27;13.60;99.90
42479;DHT22;28110;47.080;9.476;2023-05-10T02:13:54;13.60;99.90
42479;DHT22;28110;47.080;9.476;2023-05-10T02:16:23;13.60;99.90
42479;DHT22;28110;47.080;9.476;2023-05-10T02:18:51;13.60;99.90
42479;DHT22;28110;47.080;9.476;2023-05-10T02:21:19;13.60;99.90
42479;DHT22;28110;47.080;9.476;2023-05-10T02:23:46;13.50;99.90
42479;DHT22;28110;47.080;9.476;2023-05-10T02:26:14;13.50;99.90
42479;DHT22;28110;47.080;9.476;2023-05-10T02:28:42;13.50;99.90
42479;DHT22;28110;47.080;9.476;2023-05-10T02:31:08;13.50;99.90
42479;DHT22;28110;47.080;9.476;2023-05-10T02:33:37;13.50;99.90
42479;DHT22;28110;47.080;9.476;2023-05-10T02:36:04;13.50;99.90
42479;DHT22;28110;47.080;9.476;2023-05-10T02:38:31;13.40;99.90
42479;DHT22;28110;47.080;9.476;2023-05-10T02:40:59;13.50;99.90
42479;DHT22;28110;47.080;9.476;2023-05-10T02:43:24;13.40;99.90
42479;DHT22;28110;47.080;9.476;2023-05-10T02:45:51;13.40;99.90
42479;DHT22;28110;47.080;9.476;2023-05-10T02:48:16;13.40;99.90
42479;DHT22;28110;47.080;9.476;2023-05-10T02:50:44;13.40;99.90
42479;DHT22;28110;47.080;9.476;2023-05-10T02:53:13;13.30;99.90
42479;DHT22;28110;47.080;9.476;2023-05-10T02:55:40;13.20;99.90
42479;DHT22;28110;47.080;9.476;2023-05-10T02:58:07;13.20;99.90
42479;DHT22;28110;47.080;9.476;2023-05-10T03:00:33;13.10;99.90
42479;DHT22;28110;47.080;9.476;2023-05-10T03:02:58;13.10;99.90
42479;DHT22;28110;47.080;9.476;2023-05-10T03:05:24;13.00;99.90
42479;DHT22;28110;47.080;9.476;2023-05-10T03:07:50;13.00;99.90
42479;DHT22;28110;47.080;9.476;2023-05-10T03:10:16;13.00;99.90
42479;DHT22;28110;47.080;9.476;2023-05-10T03:13:21;13.00;99.90
42479;DHT22;28110;47.080;9.476;2023-05-10T03:16:08;13.10;99.90
42479;DHT22;28110;47.080;9.476;2023-05-10T03:18:44;13.00;99.90
42479;DHT22;28110;47.080;9.476;2023-05-10T03:21:14;13.00;99.90
42479;DHT22;28110;47.080;9.476;2023-05-10T03:23:59;13.00;99.90
42479;DHT22;28110;47.080;9.476;2023-05-10T03:26:27;13.00;99.90
42479;DHT22;28110;47.080;9.476;2023-05-10T03:28:54;13.00;99.90
42479;DHT22;28110;47.080;9.476;2023-05-10T03:31:20;13.00;99.90
42479;DHT22;28110;47.080;9.476;2023-05-10T03:33:47;13.00;99.90
42479;DHT22;28110;47.080;9.476;2023-05-10T03:36:13;13.00;99.90
42479;DHT22;28110;47.080;9.476;2023-05-10T03:38:39;13.00;99.90
42479;DHT22;28110;47.080;9.476;2023-05-10T03:41:04;12.90;99.90
42479;DHT22;28110;47.080;9.476;2023-05-10T03:43:30;13.00;99.90
42479;DHT22;28110;47.080;9.476;2023-05-10T03:45:55;12.90;99.90
42479;DHT22;28110;47.080;9.476;2023-05-10T03:48:21;13.00;99.90
42479;DHT22;28110;47.080;9.476;2023-05-10T03:50:46;12.90;99.90
42479;DHT22;28110;47.080;9.476;2023-05-10T03:53:12;12.90;99.90
42479;DHT22;28110;47.080;9.476;2023-05-10T03:55:38;12.80;99.90
42479;DHT22;28110;47.080;9.476;2023-05-10T03:58:03;12.80;99.90
42479;DHT22;28110;47.080;9.476;2023-05-10T04:00:29;12.80;99.90
42479;DHT22;28110;47.080;9.476;2023-05-10T04:02:55;12.80;99.90
42479;DHT22;28110;47.080;9.476;2023-05-10T04:05:20;12.80;99.90
42479;DHT22;28110;47.080;9.476;2023-05-10T04:07:46;12.80;99.90
42479;DHT22;28110;47.080;9.476;2023-05-10T04:10:12;12.80;99.90
42479;DHT22;28110;47.080;9.476;2023-05-10T04:12:38;12.70;99.90
42479;DHT22;28110;47.080;9.476;2023-05-10T04:15:04;12.70;99.90
42479;DHT22;28110;47.080;9.476;2023-05-10T04:17:29;12.70;99.90
42479;DHT22;28110;47.080;9.476;2023-05-10T04:19:56;12.70;99.90
42479;DHT22;28110;47.080;9.476;2023-05-10T04:22:21;12.70;99.90
42479;DHT22;28110;47.080;9.476;2023-05-10T04:24:47;12.60;99.90
42479;DHT22;28110;47.080;9.476;2023-05-10T04:27:12;12.60;99.90
42479;DHT22;28110;47.080;9.476;2023-05-10T04:29:38;12.60;99.90
42479;DHT22;28110;47.080;9.476;2023-05-10T04:32:03;12.70;99.90
42479;DHT22;28110;47.080;9.476;2023-05-10T04:34:29;12.70;99.90
42479;DHT22;28110;47.080;9.476;2023-05-10T04:36:54;12.70;99.90
42479;DHT22;28110;47.080;9.476;2023-05-10T04:39:20;12.70;99.90
42479;DHT22;28110;47.080;9.476;2023-05-10T04:41:46;12.80;99.90
42479;DHT22;28110;47.080;9.476;2023-05-10T04:44:11;12.80;99.90
42479;DHT22;28110;47.080;9.476;2023-05-10T04:46:37;12.80;99.90
42479;DHT22;28110;47.080;9.476;2023-05-10T04:49:02;12.80;99.90
42479;DHT22;28110;47.080;9.476;2023-05-10T04:51:28;12.80;99.90
42479;DHT22;28110;47.080;9.476;2023-05-10T04:53:53;12.80;99.90
42479;DHT22;28110;47.080;9.476;2023-05-10T04:56:19;12.80;99.90
42479;DHT22;28110;47.080;9.476;2023-05-10T04:58:44;12.80;99.90
42479;DHT22;28110;47.080;9.476;2023-05-10T05:01:10;12.80;99.90
42479;DHT22;28110;47.080;9.476;2023-05-10T05:03:36;12.80;99.90
42479;DHT22;28110;47.080;9.476;2023-05-10T05:06:02;12.80;99.90
42479;DHT22;28110;47.080;9.476;2023-05-10T05:08:27;12.80;99.90
42479;DHT22;28110;47.080;9.476;2023-05-10T05:10:53;12.80;99.90
42479;DHT22;28110;47.080;9.476;2023-05-10T05:13:19;12.80;99.90
42479;DHT22;28110;47.080;9.476;2023-05-10T05:15:45;12.70;99.90
42479;DHT22;28110;47.080;9.476;2023-05-10T05:18:10;12.70;99.90
42479;DHT22;28110;47.080;9.476;2023-05-10T05:20:36;12.70;99.90
42479;DHT22;28110;47.080;9.476;2023-05-10T05:23:02;12.80;99.90
42479;DHT22;28110;47.080;9.476;2023-05-10T05:25:27;12.70;99.90
42479;DHT22;28110;47.080;9.476;2023-05-10T05:27:53;12.70;99.90
42479;DHT22;28110;47.080;9.476;2023-05-10T05:30:18;12.80;99.90
42479;DHT22;28110;47.080;9.476;2023-05-10T05:32:44;12.70;99.90
42479;DHT22;28110;47.080;9.476;2023-05-10T05:35:09;12.80;99.90
42479;DHT22;28110;47.080;9.476;2023-05-10T05:37:35;12.80;99.90
42479;DHT22;28110;47.080;9.476;2023-05-10T05:40:01;12.80;99.90
42479;DHT22;28110;47.080;9.476;2023-05-10T05:42:27;12.90;99.90
42479;DHT22;28110;47.080;9.476;2023-05-10T05:44:52;12.90;99.90
42479;DHT22;28110;47.080;9.476;2023-05-10T05:47:18;12.80;99.90
42479;DHT22;28110;47.080;9.476;2023-05-10T05:49:43;12.80;99.90
42479;DHT22;28110;47.080;9.476;2023-05-10T05:52:11;12.80;99.90
42479;DHT22;28110;47.080;9.476;2023-05-10T05:54:37;12.90;99.90
42479;DHT22;28110;47.080;9.476;2023-05-10T05:57:02;12.90;99.90
42479;DHT22;28110;47.080;9.476;2023-05-10T05:59:28;12.90;99.90
42479;DHT22;28110;47.080;9.476;2023-05-10T06:01:54;12.90;99.90
42479;DHT22;28110;47.080;9.476;2023-05-10T06:04:19;12.90;99.90
42479;DHT22;28110;47.080;9.476;2023-05-10T06:06:45;12.90;99.90
42479;DHT22;28110;47.080;9.476;2023-05-10T06:09:11;12.90;99.90
42479;DHT22;28110;47.080;9.476;2023-05-10T06:11:37;12.90;99.90
42479;DHT22;28110;47.080;9.476;2023-05-10T06:14:04;12.90;99.90
42479;DHT22;28110;47.080;9.476;2023-05-10T06:16:30;12.90;99.90
42479;DHT22;28110;47.080;9.476;2023-05-10T06:18:56;12.90;99.90
42479;DHT22;28110;47.080;9.476;2023-05-10T06:21:21;12.80;99.90
42479;DHT22;28110;47.080;9.476;2023-05-10T06:23:47;12.80;99.90
42479;DHT22;28110;47.080;9.476;2023-05-10T06:26:13;12.80;99.90
42479;DHT22;28110;47.080;9.476;2023-05-10T06:28:39;12.70;99.90
42479;DHT22;28110;47.080;9.476;2023-05-10T06:31:05;12.70;99.90
42479;DHT22;28110;47.080;9.476;2023-05-10T06:33:31;12.60;99.90
42479;DHT22;28110;47.080;9.476;2023-05-10T06:35:57;12.50;99.90
42479;DHT22;28110;47.080;9.476;2023-05-10T06:38:23;12.50;99.90
42479;DHT22;28110;47.080;9.476;2023-05-10T06:40:48;12.50;99.90
42479;DHT22;28110;47.080;9.476;2023-05-10T06:43:14;12.50;99.90
42479;DHT22;28110;47.080;9.476;2023-05-10T06:45:39;12.50;99.90
42479;DHT22;28110;47.080;9.476;2023-05-10T06:48:06;12.50;99.90
42479;DHT22;28110;47.080;9.476;2023-05-10T06:50:31;12.50;99.90
42479;DHT22;28110;47.080;9.476;2023-05-10T06:52:57;12.60;99.90
42479;DHT22;28110;47.080;9.476;2023-05-10T06:55:23;12.60;99.90
42479;DHT22;28110;47.080;9.476;2023-05-10T06:57:48;12.60;99.90
42479;DHT22;28110;47.080;9.476;2023-05-10T07:00:14;12.60;99.90
42479;DHT22;28110;47.080;9.476;2023-05-10T07:02:40;12.60;99.90
42479;DHT22;28110;47.080;9.476;2023-05-10T07:05:06;12.60;99.90
42479;DHT22;28110;47.080;9.476;2023-05-10T07:07:31;12.60;99.90
42479;DHT22;28110;47.080;9.476;2023-05-10T07:09:57;12.60;99.90
42479;DHT22;28110;47.080;9.476;2023-05-10T07:12:23;12.60;99.90
42479;DHT22;28110;47.080;9.476;2023-05-10T07:14:49;12.60;99.90
42479;DHT22;28110;47.080;9.476;2023-05-10T07:17:15;12.60;99.90
42479;DHT22;28110;47.080;9.476;2023-05-10T07:19:40;12.60;99.90
42479;DHT22;28110;47.080;9.476;2023-05-10T07:22:06;12.50;99.90
42479;DHT22;28110;47.080;9.476;2023-05-10T07:24:32;12.50;99.90
42479;DHT22;28110;47.080;9.476;2023-05-10T07:26:58;12.60;99.90
42479;DHT22;28110;47.080;9.476;2023-05-10T07:29:23;12.60;99.90
42479;DHT22;28110;47.080;9.476;2023-05-10T07:31:49;12.60;99.90
42479;DHT22;28110;47.080;9.476;2023-05-10T07:34:14;12.60;99.90
42479;DHT22;28110;47.080;9.476;2023-05-10T07:36:40;12.50;99.90
42479;DHT22;28110;47.080;9.476;2023-05-10T07:39:06;12.50;99.90
42479;DHT22;28110;47.080;9.476;2023-05-10T07:41:32;12.50;99.90
42479;DHT22;28110;47.080;9.476;2023-05-10T07:43:58;12.50;99.90
42479;DHT22;28110;47.080;9.476;2023-05-10T07:46:23;12.40;99.90
42479;DHT22;28110;47.080;9.476;2023-05-10T07:48:49;12.50;99.90
42479;DHT22;28110;47.080;9.476;2023-05-10T07:51:14;12.50;99.90
42479;DHT22;28110;47.080;9.476;2023-05-10T07:53:40;12.50;99.90
42479;DHT22;28110;47.080;9.476;2023-05-10T07:56:25;12.40;99.90
42479;DHT22;28110;47.080;9.476;2023-05-10T07:58:54;12.40;99.90
42479;DHT22;28110;47.080;9.476;2023-05-10T08:01:19;12.30;99.90
42479;DHT22;28110;47.080;9.476;2023-05-10T08:03:45;12.30;99.90
42479;DHT22;28110;47.080;9.476;2023-05-10T08:06:10;12.30;99.90
42479;DHT22;28110;47.080;9.476;2023-05-10T08:08:36;12.20;99.90
42479;DHT22;28110;47.080;9.476;2023-05-10T08:11:03;12.10;99.90
42479;DHT22;28110;47.080;9.476;2023-05-10T08:13:29;12.10;99.90
42479;DHT22;28110;47.080;9.476;2023-05-10T08:15:54;12.20;99.90
42479;DHT22;28110;47.080;9.476;2023-05-10T08:18:20;12.20;99.90
42479;DHT22;28110;47.080;9.476;2023-05-10T08:20:46;12.30;99.90
42479;DHT22;28110;47.080;9.476;2023-05-10T08:23:14;12.40;99.90
42479;DHT22;28110;47.080;9.476;2023-05-10T08:25:40;12.40;99.90
42479;DHT22;28110;47.080;9.476;2023-05-10T08:28:06;12.40;99.90
42479;DHT22;28110;47.080;9.476;2023-05-10T08:30:31;12.30;99.90
42479;DHT22;28110;47.080;9.476;2023-05-10T08:32:57;12.40;99.90
42479;DHT22;28110;47.080;9.476;2023-05-10T08:35:23;12.50;99.90
42479;DHT22;28110;47.080;9.476;2023-05-10T08:37:48;12.50;99.90
42479;DHT22;28110;47.080;9.476;2023-05-10T08:40:14;12.50;99.90
42479;DHT22;28110;47.080;9.476;2023-05-10T08:43:00;12.50;99.90
42479;DHT22;28110;47.080;9.476;2023-05-10T08:45:32;12.60;99.90
42479;DHT22;28110;47.080;9.476;2023-05-10T08:47:59;12.60;99.90
42479;DHT22;28110;47.080;9.476;2023-05-10T08:50:25;12.50;99.90
42479;DHT22;28110;47.080;9.476;2023-05-10T08:52:53;12.50;99.90
42479;DHT22;28110;47.080;9.476;2023-05-10T08:55:20;12.60;99.90
42479;DHT22;28110;47.080;9.476;2023-05-10T08:57:48;12.60;99.90
42479;DHT22;28110;47.080;9.476;2023-05-10T09:00:14;12.60;99.90
42479;DHT22;28110;47.080;9.476;2023-05-10T09:02:42;12.70;99.90
42479;DHT22;28110;47.080;9.476;2023-05-10T09:05:08;12.80;99.90
42479;DHT22;28110;47.080;9.476;2023-05-10T09:07:35;12.80;99.90
42479;DHT22;28110;47.080;9.476;2023-05-10T09:10:00;12.90;99.90
42479;DHT22;28110;47.080;9.476;2023-05-10T09:12:27;12.90;99.90
42479;DHT22;28110;47.080;9.476;2023-05-10T09:14:52;13.00;99.90
42479;DHT22;28110;47.080;9.476;2023-05-10T09:17:19;13.00;99.90
42479;DHT22;28110;47.080;9.476;2023-05-10T09:19:45;13.10;99.90
42479;DHT22;28110;47.080;9.476;2023-05-10T09:22:11;13.10;99.90
42479;DHT22;28110;47.080;9.476;2023-05-10T09:24:36;13.10;99.90
42479;DHT22;28110;47.080;9.476;2023-05-10T09:27:07;13.20;99.90
42479;DHT22;28110;47.080;9.476;2023-05-10T09:29:40;13.20;99.90
42479;DHT22;28110;47.080;9.476;2023-05-10T09:32:05;13.20;99.90
42479;DHT22;28110;47.080;9.476;2023-05-10T09:34:32;13.20;99.90
42479;DHT22;28110;47.080;9.476;2023-05-10T09:37:01;13.20;99.90
42479;DHT22;28110;47.080;9.476;2023-05-10T09:39:37;13.20;99.90
42479;DHT22;28110;47.080;9.476;2023-05-10T09:42:08;13.20;99.90
42479;DHT22;28110;47.080;9.476;2023-05-10T09:44:34;13.30;99.90
42479;DHT22;28110;47.080;9.476;2023-05-10T09:47:01;13.30;99.90
42479;DHT22;28110;47.080;9.476;2023-05-10T09:49:26;13.30;99.90
42479;DHT22;28110;47.080;9.476;2023-05-10T09:52:03;13.40;99.90
42479;DHT22;28110;47.080;9.476;2023-05-10T09:54:29;13.50;99.90
42479;DHT22;28110;47.080;9.476;2023-05-10T09:56:54;13.50;99.90
42479;DHT22;28110;47.080;9.476;2023-05-10T09:59:20;13.40;99.90
42479;DHT22;28110;47.080;9.476;2023-05-10T10:01:50;13.40;99.90
42479;DHT22;28110;47.080;9.476;2023-05-10T10:04:16;13.50;99.90
42479;DHT22;28110;47.080;9.476;2023-05-10T10:06:42;13.50;99.90
42479;DHT22;28110;47.080;9.476;2023-05-10T10:09:08;13.50;99.90
42479;DHT22;28110;47.080;9.476;2023-05-10T10:11:35;13.50;99.90
42479;DHT22;28110;47.080;9.476;2023-05-10T10:14:01;13.50;99.90
42479;DHT22;28110;47.080;9.476;2023-05-10T10:16:29;13.40;99.90
42479;DHT22;28110;47.080;9.476;2023-05-10T10:18:55;13.40;99.90
42479;DHT22;28110;47.080;9.476;2023-05-10T10:21:21;13.50;99.90
42479;DHT22;28110;47.080;9.476;2023-05-10T10:23:47;13.50;99.90
42479;DHT22;28110;47.080;9.476;2023-05-10T10:26:13;13.60;99.90
42479;DHT22;28110;47.080;9.476;2023-05-10T10:28:48;13.60;99.90
42479;DHT22;28110;47.080;9.476;2023-05-10T10:31:23;13.60;99.90
42479;DHT22;28110;47.080;9.476;2023-05-10T10:34:00;13.70;99.90
42479;DHT22;28110;47.080;9.476;2023-05-10T10:36:27;13.60;99.90
42479;DHT22;28110;47.080;9.476;2023-05-10T10:38:57;13.70;99.90
42479;DHT22;28110;47.080;9.476;2023-05-10T10:41:29;13.60;99.90
42479;DHT22;28110;47.080;9.476;2023-05-10T10:52:28;13.40;99.90
42479;DHT22;28110;47.080;9.476;2023-05-10T10:55:07;13.40;99.90
42479;DHT22;28110;47.080;9.476;2023-05-10T11:00:22;13.40;99.90
42479;DHT22;28110;47.080;9.476;2023-05-10T11:05:25;13.50;99.90
42479;DHT22;28110;47.080;9.476;2023-05-10T11:07:55;13.60;99.90
42479;DHT22;28110;47.080;9.476;2023-05-10T11:10:25;13.60;99.90
42479;DHT22;28110;47.080;9.476;2023-05-10T11:12:52;13.60;99.90
42479;DHT22;28110;47.080;9.476;2023-05-10T11:15:19;13.60;99.90
42479;DHT22;28110;47.080;9.476;2023-05-10T11:17:45;13.70;99.90
42479;DHT22;28110;47.080;9.476;2023-05-10T11:20:17;13.70;99.90
42479;DHT22;28110;47.080;9.476;2023-05-10T11:22:54;13.80;99.90
42479;DHT22;28110;47.080;9.476;2023-05-10T11:25:25;13.90;99.90
42479;DHT22;28110;47.080;9.476;2023-05-10T11:27:51;13.90;99.90
42479;DHT22;28110;47.080;9.476;2023-05-10T11:30:17;13.90;99.90
42479;DHT22;28110;47.080;9.476;2023-05-10T11:32:43;13.90;99.90
42479;DHT22;28110;47.080;9.476;2023-05-10T11:35:10;13.90;99.90
42479;DHT22;28110;47.080;9.476;2023-05-10T11:37:37;13.90;99.90
42479;DHT22;28110;47.080;9.476;2023-05-10T11:40:07;13.90;99.90
42479;DHT22;28110;47.080;9.476;2023-05-10T11:42:37;14.00;99.90
42479;DHT22;28110;47.080;9.476;2023-05-10T11:45:02;14.00;99.90
42479;DHT22;28110;47.080;9.476;2023-05-10T11:47:28;14.00;99.90
42479;DHT22;28110;47.080;9.476;2023-05-10T11:49:53;14.00;99.90
42479;DHT22;28110;47.080;9.476;2023-05-10T11:52:19;14.10;99.90
42479;DHT22;28110;47.080;9.476;2023-05-10T11:54:51;14.10;99.90
42479;DHT22;28110;47.080;9.476;2023-05-10T11:57:18;14.10;99.90
42479;DHT22;28110;47.080;9.476;2023-05-10T11:59:44;14.10;99.90
42479;DHT22;28110;47.080;9.476;2023-05-10T12:02:10;14.20;99.90
42479;DHT22;28110;47.080;9.476;2023-05-10T12:04:35;14.10;99.90
42479;DHT22;28110;47.080;9.476;2023-05-10T12:07:01;14.10;99.90
42479;DHT22;28110;47.080;9.476;2023-05-10T12:09:27;14.10;99.90
42479;DHT22;28110;47.080;9.476;2023-05-10T12:11:55;14.00;99.90
42479;DHT22;28110;47.080;9.476;2023-05-10T12:14:24;13.90;99.90
42479;DHT22;28110;47.080;9.476;2023-05-10T12:16:49;13.90;99.90
42479;DHT22;28110;47.080;9.476;2023-05-10T12:19:19;13.90;99.90
42479;DHT22;28110;47.080;9.476;2023-05-10T12:21:45;13.90;99.90
42479;DHT22;28110;47.080;9.476;2023-05-10T12:24:12;14.00;99.90
42479;DHT22;28110;47.080;9.476;2023-05-10T12:26:38;14.00;99.90
42479;DHT22;28110;47.080;9.476;2023-05-10T12:29:17;14.00;99.90
42479;DHT22;28110;47.080;9.476;2023-05-10T12:31:50;14.00;99.90
42479;DHT22;28110;47.080;9.476;2023-05-10T12:34:33;14.10;99.90
42479;DHT22;28110;47.080;9.476;2023-05-10T12:36:59;14.10;99.90
42479;DHT22;28110;47.080;9.476;2023-05-10T12:39:25;14.10;99.90
42479;DHT22;28110;47.080;9.476;2023-05-10T12:41:51;14.10;99.90
42479;DHT22;28110;47.080;9.476;2023-05-10T12:44:17;14.10;99.90
42479;DHT22;28110;47.080;9.476;2023-05-10T12:46:43;14.10;99.90
42479;DHT22;28110;47.080;9.476;2023-05-10T12:49:08;13.90;99.90
42479;DHT22;28110;47.080;9.476;2023-05-10T12:51:34;13.80;99.90
42479;DHT22;28110;47.080;9.476;2023-05-10T12:53:59;13.70;99.90
42479;DHT22;28110;47.080;9.476;2023-05-10T12:56:25;13.70;99.90
42479;DHT22;28110;47.080;9.476;2023-05-10T12:58:51;13.70;99.90
42479;DHT22;28110;47.080;9.476;2023-05-10T13:01:16;13.60;99.90
42479;DHT22;28110;47.080;9.476;2023-05-10T13:03:42;13.60;99.90
42479;DHT22;28110;47.080;9.476;2023-05-10T13:06:08;13.60;99.90
42479;DHT22;28110;47.080;9.476;2023-05-10T13:08:34;13.50;99.90
42479;DHT22;28110;47.080;9.476;2023-05-10T13:11:00;13.50;99.90
42479;DHT22;28110;47.080;9.476;2023-05-10T13:13:26;13.30;99.90
42479;DHT22;28110;47.080;9.476;2023-05-10T13:15:51;13.30;99.90
42479;DHT22;28110;47.080;9.476;2023-05-10T13:18:17;13.20;99.90
42479;DHT22;28110;47.080;9.476;2023-05-10T13:20:43;13.10;99.90
42479;DHT22;28110;47.080;9.476;2023-05-10T13:23:09;13.00;99.90
42479;DHT22;28110;47.080;9.476;2023-05-10T13:25:35;13.00;99.90
42479;DHT22;28110;47.080;9.476;2023-05-10T13:28:01;13.00;99.90
42479;DHT22;28110;47.080;9.476;2023-05-10T13:30:27;13.10;99.90
42479;DHT22;28110;47.080;9.476;2023-05-10T13:32:52;13.00;99.90
42479;DHT22;28110;47.080;9.476;2023-05-10T13:35:18;13.00;99.90
42479;DHT22;28110;47.080;9.476;2023-05-10T13:37:43;13.00;99.90
42479;DHT22;28110;47.080;9.476;2023-05-10T13:40:10;13.00;99.90
42479;DHT22;28110;47.080;9.476;2023-05-10T13:42:35;13.00;99.90
42479;DHT22;28110;47.080;9.476;2023-05-10T13:45:01;13.00;99.90
42479;DHT22;28110;47.080;9.476;2023-05-10T13:47:27;13.00;99.90
42479;DHT22;28110;47.080;9.476;2023-05-10T13:49:52;12.90;99.90
42479;DHT22;28110;47.080;9.476;2023-05-10T13:52:18;12.90;99.90
42479;DHT22;28110;47.080;9.476;2023-05-10T13:54:44;12.90;99.90
42479;DHT22;28110;47.080;9.476;2023-05-10T13:57:09;12.90;99.90
42479;DHT22;28110;47.080;9.476;2023-05-10T13:59:37;12.90;99.90
42479;DHT22;28110;47.080;9.476;2023-05-10T14:02:03;13.00;99.90
42479;DHT22;28110;47.080;9.476;2023-05-10T14:04:29;12.90;99.90
42479;DHT22;28110;47.080;9.476;2023-05-10T14:06:55;12.90;99.90
42479;DHT22;28110;47.080;9.476;2023-05-10T14:09:21;12.90;99.90
42479;DHT22;28110;47.080;9.476;2023-05-10T14:11:46;13.00;99.90
42479;DHT22;28110;47.080;9.476;2023-05-10T14:14:12;13.10;99.90
42479;DHT22;28110;47.080;9.476;2023-05-10T14:16:44;13.20;99.90
42479;DHT22;28110;47.080;9.476;2023-05-10T14:19:10;13.30;99.90
42479;DHT22;28110;47.080;9.476;2023-05-10T14:21:36;13.40;99.90
42479;DHT22;28110;47.080;9.476;2023-05-10T14:24:01;13.40;99.90
42479;DHT22;28110;47.080;9.476;2023-05-10T14:26:27;13.30;99.90
42479;DHT22;28110;47.080;9.476;2023-05-10T14:28:53;13.40;99.90
42479;DHT22;28110;47.080;9.476;2023-05-10T14:31:18;13.40;99.90
42479;DHT22;28110;47.080;9.476;2023-05-10T14:33:46;13.40;99.90
42479;DHT22;28110;47.080;9.476;2023-05-10T14:36:12;13.50;99.90
42479;DHT22;28110;47.080;9.476;2023-05-10T14:38:38;13.40;99.90
42479;DHT22;28110;47.080;9.476;2023-05-10T14:41:04;13.40;99.90
42479;DHT22;28110;47.080;9.476;2023-05-10T14:43:29;13.40;99.90
42479;DHT22;28110;47.080;9.476;2023-05-10T14:45:55;13.40;99.90
42479;DHT22;28110;47.080;9.476;2023-05-10T14:48:21;13.30;99.90
42479;DHT22;28110;47.080;9.476;2023-05-10T14:50:46;13.20;99.90
42479;DHT22;28110;47.080;9.476;2023-05-10T14:53:12;13.20;99.90
42479;DHT22;28110;47.080;9.476;2023-05-10T14:55:38;13.20;99.90
42479;DHT22;28110;47.080;9.476;2023-05-10T14:58:04;13.10;99.90
42479;DHT22;28110;47.080;9.476;2023-05-10T15:00:30;13.10;99.90
42479;DHT22;28110;47.080;9.476;2023-05-10T15:02:55;13.00;99.90
42479;DHT22;28110;47.080;9.476;2023-05-10T15:05:21;13.00;99.90
42479;DHT22;28110;47.080;9.476;2023-05-10T15:07:47;13.00;99.90
42479;DHT22;28110;47.080;9.476;2023-05-10T15:10:13;12.90;99.90
42479;DHT22;28110;47.080;9.476;2023-05-10T15:12:39;12.90;99.90
42479;DHT22;28110;47.080;9.476;2023-05-10T15:15:05;12.90;99.90
42479;DHT22;28110;47.080;9.476;2023-05-10T15:17:31;12.90;99.90
42479;DHT22;28110;47.080;9.476;2023-05-10T15:19:57;12.90;99.90
42479;DHT22;28110;47.080;9.476;2023-05-10T15:22:23;13.00;99.90
42479;DHT22;28110;47.080;9.476;2023-05-10T15:24:49;13.00;99.90
42479;DHT22;28110;47.080;9.476;2023-05-10T15:27:14;12.90;99.90
42479;DHT22;28110;47.080;9.476;2023-05-10T15:29:40;12.90;99.90
42479;DHT22;28110;47.080;9.476;2023-05-10T15:32:05;12.90;99.90
42479;DHT22;28110;47.080;9.476;2023-05-10T15:34:31;12.80;99.90
42479;DHT22;28110;47.080;9.476;2023-05-10T15:36:57;12.80;99.90
42479;DHT22;28110;47.080;9.476;2023-05-10T15:39:22;12.80;99.90
42479;DHT22;28110;47.080;9.476;2023-05-10T15:41:48;12.80;99.90
42479;DHT22;28110;47.080;9.476;2023-05-10T15:44:14;12.80;99.90
42479;DHT22;28110;47.080;9.476;2023-05-10T15:46:39;12.80;99.90
42479;DHT22;28110;47.080;9.476;2023-05-10T15:49:05;12.90;99.90
42479;DHT22;28110;47.080;9.476;2023-05-10T15:51:31;12.90;99.90
42479;DHT22;28110;47.080;9.476;2023-05-10T15:53:58;12.90;99.90
42479;DHT22;28110;47.080;9.476;2023-05-10T15:56:23;12.90;99.90